Armstrong, PA

2:53 AM EDT on September 02, 2014 (GMT -0400)
Elimsport | Change Station
CLOSE
Current Station
Personal Weather Station
Location: Montgomery, PA
Elevation: 643 ft
Nearby Weather Stations

Elev 643 ft 41.17 °N, 76.98 °W | Updated 6 seconds ago

Overcast
Overcast
66.9 °F
Feels Like 66.9 °F
N
0.0
Wind Variable Wind from West
Gusts 0.0 mph

Today
High -- | Low -- °F
--% Chance of Precip.
Yesterday
High -- | Low -- °F
Precip. -- in
6:35 AM 7:39 PM
Waxing Crescent, 48% visible
Pressure 29.90 in
Visibility 4.0 miles
Clouds Overcast 300 ft
Dew Point 67 °F
Humidity 99%
Rainfall 0.00 in
Snow Depth Not available.
UV 0 out of 12
Pollen 5.00 out of 12
Air Quality Not available.
Flu Activity Not available.
METAR KIPT 020554Z AUTO 00000KT 4SM BR OVC003 21/20 A2991 RMK AO2 SLP124 T02110200 10261 20211 58008

More Conditions Fewer Conditions

Pressure 29.90 in
Visibility 4.0 miles
Clouds Overcast 300 ft
Dew Point 67 °F
Humidity 99%
Rainfall 0.00 in
Snow Depth Not available.
UV 0 out of 12
Pollen 5.00 out of 12
Air Quality Not available.
Flu Activity Not available.
METAR KIPT 020554Z AUTO 00000KT 4SM BR OVC003 21/20 A2991 RMK AO2 SLP124 T02110200 10261 20211 58008

More Conditions Fewer Conditions

10-Day Weather Forecast

Almanac

Astronomy

Sep. 02, 2014 Rise Set
Actual Time 6:35 AM EDT 7:39 PM EDT
Civil Twilight 6:07 AM EDT 8:07 PM EDT
Nautical Twilight 5:33 AM EDT 8:41 PM EDT
Astronomical Twilight 4:58 AM EDT 9:16 PM EDT
Moon 2:21 PM EDT No Moon Set
Length of Visible Light 14h 00m
Length of Day
13h 03m
Tomorrow will be 2m 39s shorter.
Waxing Crescent, 48% of the Moon is Illuminated
Today
Waxing Crescent
Sep 2
First Quarter
Sep 8
Full
Sep 15
Last Quarter
Sep 24
New

Today's Extremes

State Highs State Lows

Community

WunderPhotos

Upload Photos

1,749,589 photos uploaded!

WunderBlogs® & News

Nearby

Snow Depth

Station Depth Elevation
No new snow has been reported.

Earthquake Activity

City Distance Mag. Time & Date
No recent earthquake activity has been reported nearby.
Minimum magnitude displayed is 2.5.

Coastal Water Temperatures

Place Temperature
No Stations Reporting

Nearby Weather Stations